sensor_id;sensor_type;location;lat;lon;timestamp;P1;durP1;ratioP1;P2;durP2;ratioP2
56637;SDS011;42507;51.982;20.140;2024-01-06T00:00:52;23.50;;;12.60;;
56637;SDS011;42507;51.982;20.140;2024-01-06T00:03:38;24.10;;;12.00;;
56637;SDS011;42507;51.982;20.140;2024-01-06T00:06:04;21.80;;;11.90;;
56637;SDS011;42507;51.982;20.140;2024-01-06T00:08:30;23.90;;;12.30;;
56637;SDS011;42507;51.982;20.140;2024-01-06T00:10:56;23.80;;;12.40;;
56637;SDS011;42507;51.982;20.140;2024-01-06T00:13:23;24.20;;;13.00;;
56637;SDS011;42507;51.982;20.140;2024-01-06T00:15:48;27.10;;;14.10;;
56637;SDS011;42507;51.982;20.140;2024-01-06T00:18:14;29.00;;;12.10;;
56637;SDS011;42507;51.982;20.140;2024-01-06T00:20:40;25.70;;;13.80;;
56637;SDS011;42507;51.982;20.140;2024-01-06T00:23:06;24.70;;;13.20;;
56637;SDS011;42507;51.982;20.140;2024-01-06T00:25:32;26.30;;;14.20;;
56637;SDS011;42507;51.982;20.140;2024-01-06T00:27:58;22.70;;;12.40;;
56637;SDS011;42507;51.982;20.140;2024-01-06T00:30:24;25.70;;;14.30;;
56637;SDS011;42507;51.982;20.140;2024-01-06T00:32:50;25.70;;;13.30;;
56637;SDS011;42507;51.982;20.140;2024-01-06T00:35:16;25.70;;;13.30;;
56637;SDS011;42507;51.982;20.140;2024-01-06T00:37:42;25.40;;;13.10;;
56637;SDS011;42507;51.982;20.140;2024-01-06T00:40:08;26.40;;;13.70;;
56637;SDS011;42507;51.982;20.140;2024-01-06T00:42:34;23.50;;;12.10;;
56637;SDS011;42507;51.982;20.140;2024-01-06T00:45:00;26.40;;;13.90;;
56637;SDS011;42507;51.982;20.140;2024-01-06T00:47:26;23.20;;;12.20;;
56637;SDS011;42507;51.982;20.140;2024-01-06T00:49:52;23.40;;;12.40;;
56637;SDS011;42507;51.982;20.140;2024-01-06T00:52:18;21.80;;;11.40;;
56637;SDS011;42507;51.982;20.140;2024-01-06T00:54:44;22.50;;;12.20;;
56637;SDS011;42507;51.982;20.140;2024-01-06T00:57:10;23.10;;;10.40;;
56637;SDS011;42507;51.982;20.140;2024-01-06T00:59:36;24.00;;;11.50;;
56637;SDS011;42507;51.982;20.140;2024-01-06T01:02:02;22.60;;;12.70;;
56637;SDS011;42507;51.982;20.140;2024-01-06T01:04:28;23.60;;;13.00;;
56637;SDS011;42507;51.982;20.140;2024-01-06T01:06:54;21.30;;;12.10;;
56637;SDS011;42507;51.982;20.140;2024-01-06T01:09:19;21.80;;;11.10;;
56637;SDS011;42507;51.982;20.140;2024-01-06T01:11:45;22.20;;;11.10;;
56637;SDS011;42507;51.982;20.140;2024-01-06T01:14:11;25.80;;;13.00;;
56637;SDS011;42507;51.982;20.140;2024-01-06T01:16:37;28.30;;;16.00;;
56637;SDS011;42507;51.982;20.140;2024-01-06T01:19:03;29.70;;;15.00;;
56637;SDS011;42507;51.982;20.140;2024-01-06T01:21:29;26.60;;;13.50;;
56637;SDS011;42507;51.982;20.140;2024-01-06T01:23:55;23.10;;;12.40;;
56637;SDS011;42507;51.982;20.140;2024-01-06T01:26:21;25.80;;;13.60;;
56637;SDS011;42507;51.982;20.140;2024-01-06T01:28:47;26.60;;;12.20;;
56637;SDS011;42507;51.982;20.140;2024-01-06T01:31:13;31.80;;;16.30;;
56637;SDS011;42507;51.982;20.140;2024-01-06T01:33:39;49.60;;;24.80;;
56637;SDS011;42507;51.982;20.140;2024-01-06T01:36:05;33.70;;;15.40;;
56637;SDS011;42507;51.982;20.140;2024-01-06T01:38:31;28.40;;;13.00;;
56637;SDS011;42507;51.982;20.140;2024-01-06T01:40:57;27.00;;;12.20;;
56637;SDS011;42507;51.982;20.140;2024-01-06T01:43:24;29.70;;;13.60;;
56637;SDS011;42507;51.982;20.140;2024-01-06T01:45:52;32.30;;;12.90;;
56637;SDS011;42507;51.982;20.140;2024-01-06T01:48:22;29.90;;;13.60;;
56637;SDS011;42507;51.982;20.140;2024-01-06T01:50:48;32.70;;;13.40;;
56637;SDS011;42507;51.982;20.140;2024-01-06T01:53:14;34.70;;;12.50;;
56637;SDS011;42507;51.982;20.140;2024-01-06T01:55:40;29.20;;;12.60;;
56637;SDS011;42507;51.982;20.140;2024-01-06T01:58:07;28.50;;;13.20;;
56637;SDS011;42507;51.982;20.140;2024-01-06T02:00:35;31.70;;;13.40;;
56637;SDS011;42507;51.982;20.140;2024-01-06T02:03:00;21.90;;;11.70;;
56637;SDS011;42507;51.982;20.140;2024-01-06T02:05:30;28.60;;;12.60;;
56637;SDS011;42507;51.982;20.140;2024-01-06T02:07:56;20.60;;;11.00;;
56637;SDS011;42507;51.982;20.140;2024-01-06T02:10:22;20.20;;;10.10;;
56637;SDS011;42507;51.982;20.140;2024-01-06T02:12:49;23.70;;;11.80;;
56637;SDS011;42507;51.982;20.140;2024-01-06T02:15:14;18.10;;;9.80;;
56637;SDS011;42507;51.982;20.140;2024-01-06T02:17:40;21.70;;;11.60;;
56637;SDS011;42507;51.982;20.140;2024-01-06T02:20:07;20.80;;;11.30;;
56637;SDS011;42507;51.982;20.140;2024-01-06T02:22:36;22.80;;;11.60;;
56637;SDS011;42507;51.982;20.140;2024-01-06T02:25:03;20.90;;;11.30;;
56637;SDS011;42507;51.982;20.140;2024-01-06T02:27:33;24.00;;;11.80;;
56637;SDS011;42507;51.982;20.140;2024-01-06T02:29:59;26.30;;;12.20;;
56637;SDS011;42507;51.982;20.140;2024-01-06T02:32:25;22.70;;;11.90;;
56637;SDS011;42507;51.982;20.140;2024-01-06T02:34:51;24.90;;;11.60;;
56637;SDS011;42507;51.982;20.140;2024-01-06T02:37:17;24.40;;;11.00;;
56637;SDS011;42507;51.982;20.140;2024-01-06T02:39:43;29.00;;;12.40;;
56637;SDS011;42507;51.982;20.140;2024-01-06T02:42:09;23.40;;;12.00;;
56637;SDS011;42507;51.982;20.140;2024-01-06T02:44:35;25.00;;;12.70;;
56637;SDS011;42507;51.982;20.140;2024-01-06T02:47:01;21.60;;;10.80;;
56637;SDS011;42507;51.982;20.140;2024-01-06T02:49:27;23.40;;;10.90;;
56637;SDS011;42507;51.982;20.140;2024-01-06T02:51:53;25.60;;;12.80;;
56637;SDS011;42507;51.982;20.140;2024-01-06T02:54:18;22.50;;;11.70;;
56637;SDS011;42507;51.982;20.140;2024-01-06T02:56:44;25.10;;;12.70;;
56637;SDS011;42507;51.982;20.140;2024-01-06T02:59:10;27.10;;;13.30;;
56637;SDS011;42507;51.982;20.140;2024-01-06T03:01:36;27.90;;;12.20;;
56637;SDS011;42507;51.982;20.140;2024-01-06T03:04:02;23.60;;;11.70;;
56637;SDS011;42507;51.982;20.140;2024-01-06T03:06:28;22.40;;;11.50;;
56637;SDS011;42507;51.982;20.140;2024-01-06T03:08:54;23.90;;;11.90;;
56637;SDS011;42507;51.982;20.140;2024-01-06T03:11:20;19.90;;;10.40;;
56637;SDS011;42507;51.982;20.140;2024-01-06T03:13:46;24.60;;;12.50;;
56637;SDS011;42507;51.982;20.140;2024-01-06T03:16:12;24.40;;;12.50;;
56637;SDS011;42507;51.982;20.140;2024-01-06T03:18:38;30.10;;;14.80;;
56637;SDS011;42507;51.982;20.140;2024-01-06T03:21:04;31.20;;;13.10;;
56637;SDS011;42507;51.982;20.140;2024-01-06T03:23:30;30.00;;;13.90;;
56637;SDS011;42507;51.982;20.140;2024-01-06T03:25:56;25.40;;;13.30;;
56637;SDS011;42507;51.982;20.140;2024-01-06T03:28:22;23.60;;;12.60;;
56637;SDS011;42507;51.982;20.140;2024-01-06T03:30:48;27.00;;;12.60;;
56637;SDS011;42507;51.982;20.140;2024-01-06T03:33:14;23.50;;;12.40;;
56637;SDS011;42507;51.982;20.140;2024-01-06T03:35:40;26.10;;;13.80;;
56637;SDS011;42507;51.982;20.140;2024-01-06T03:38:06;25.10;;;13.20;;
56637;SDS011;42507;51.982;20.140;2024-01-06T03:40:32;23.10;;;11.90;;
56637;SDS011;42507;51.982;20.140;2024-01-06T03:42:58;24.50;;;12.50;;
56637;SDS011;42507;51.982;20.140;2024-01-06T03:45:25;23.80;;;12.20;;
56637;SDS011;42507;51.982;20.140;2024-01-06T03:47:51;24.10;;;12.20;;
56637;SDS011;42507;51.982;20.140;2024-01-06T03:50:17;25.70;;;12.80;;
56637;SDS011;42507;51.982;20.140;2024-01-06T03:52:43;24.60;;;12.50;;
56637;SDS011;42507;51.982;20.140;2024-01-06T03:55:09;22.20;;;11.60;;
56637;SDS011;42507;51.982;20.140;2024-01-06T03:57:35;28.90;;;13.50;;
56637;SDS011;42507;51.982;20.140;2024-01-06T04:00:02;25.80;;;14.00;;
56637;SDS011;42507;51.982;20.140;2024-01-06T04:02:30;24.80;;;13.50;;
56637;SDS011;42507;51.982;20.140;2024-01-06T04:04:56;25.70;;;13.40;;
56637;SDS011;42507;51.982;20.140;2024-01-06T04:07:21;22.40;;;13.10;;
56637;SDS011;42507;51.982;20.140;2024-01-06T04:09:47;26.80;;;14.10;;
56637;SDS011;42507;51.982;20.140;2024-01-06T04:12:13;22.50;;;12.40;;
56637;SDS011;42507;51.982;20.140;2024-01-06T04:14:39;30.30;;;14.10;;
56637;SDS011;42507;51.982;20.140;2024-01-06T04:17:05;23.70;;;12.90;;
56637;SDS011;42507;51.982;20.140;2024-01-06T04:19:31;24.60;;;13.40;;
56637;SDS011;42507;51.982;20.140;2024-01-06T04:21:57;23.40;;;12.30;;
56637;SDS011;42507;51.982;20.140;2024-01-06T04:24:23;24.20;;;13.10;;
56637;SDS011;42507;51.982;20.140;2024-01-06T04:26:49;23.30;;;12.70;;
56637;SDS011;42507;51.982;20.140;2024-01-06T04:29:15;26.50;;;13.40;;
56637;SDS011;42507;51.982;20.140;2024-01-06T04:31:41;25.30;;;13.30;;
56637;SDS011;42507;51.982;20.140;2024-01-06T04:34:07;24.50;;;13.10;;
56637;SDS011;42507;51.982;20.140;2024-01-06T04:36:33;25.30;;;12.20;;
56637;SDS011;42507;51.982;20.140;2024-01-06T04:38:59;28.10;;;13.70;;
56637;SDS011;42507;51.982;20.140;2024-01-06T04:41:25;25.10;;;12.80;;
56637;SDS011;42507;51.982;20.140;2024-01-06T04:43:51;26.40;;;13.90;;
56637;SDS011;42507;51.982;20.140;2024-01-06T04:46:17;27.10;;;13.70;;
56637;SDS011;42507;51.982;20.140;2024-01-06T04:48:43;22.20;;;11.90;;
56637;SDS011;42507;51.982;20.140;2024-01-06T04:51:09;24.10;;;12.30;;
56637;SDS011;42507;51.982;20.140;2024-01-06T04:53:37;26.40;;;13.40;;
56637;SDS011;42507;51.982;20.140;2024-01-06T04:56:04;22.30;;;12.90;;
56637;SDS011;42507;51.982;20.140;2024-01-06T04:58:30;23.60;;;11.50;;
56637;SDS011;42507;51.982;20.140;2024-01-06T05:00:56;22.40;;;12.20;;
56637;SDS011;42507;51.982;20.140;2024-01-06T05:03:22;23.60;;;12.50;;
56637;SDS011;42507;51.982;20.140;2024-01-06T05:05:48;24.10;;;12.70;;
56637;SDS011;42507;51.982;20.140;2024-01-06T05:08:13;23.70;;;12.90;;
56637;SDS011;42507;51.982;20.140;2024-01-06T05:10:39;23.10;;;12.70;;
56637;SDS011;42507;51.982;20.140;2024-01-06T05:13:05;24.60;;;11.90;;
56637;SDS011;42507;51.982;20.140;2024-01-06T05:15:31;24.00;;;12.50;;
56637;SDS011;42507;51.982;20.140;2024-01-06T05:17:57;23.60;;;12.40;;
56637;SDS011;42507;51.982;20.140;2024-01-06T05:20:23;24.60;;;12.20;;
56637;SDS011;42507;51.982;20.140;2024-01-06T05:22:49;21.00;;;12.40;;
56637;SDS011;42507;51.982;20.140;2024-01-06T05:25:15;21.90;;;12.30;;
56637;SDS011;42507;51.982;20.140;2024-01-06T05:27:41;21.50;;;12.40;;
56637;SDS011;42507;51.982;20.140;2024-01-06T05:30:07;21.90;;;11.10;;
56637;SDS011;42507;51.982;20.140;2024-01-06T05:32:33;21.70;;;10.70;;
56637;SDS011;42507;51.982;20.140;2024-01-06T05:34:59;24.80;;;11.90;;
56637;SDS011;42507;51.982;20.140;2024-01-06T05:37:25;22.50;;;11.90;;
56637;SDS011;42507;51.982;20.140;2024-01-06T05:39:51;21.30;;;11.80;;
56637;SDS011;42507;51.982;20.140;2024-01-06T05:42:18;26.40;;;14.40;;
56637;SDS011;42507;51.982;20.140;2024-01-06T05:44:43;23.90;;;13.50;;
56637;SDS011;42507;51.982;20.140;2024-01-06T05:47:09;24.60;;;13.10;;
56637;SDS011;42507;51.982;20.140;2024-01-06T05:49:35;20.10;;;10.90;;
56637;SDS011;42507;51.982;20.140;2024-01-06T05:52:01;21.40;;;10.50;;
56637;SDS011;42507;51.982;20.140;2024-01-06T05:54:27;27.50;;;11.80;;
56637;SDS011;42507;51.982;20.140;2024-01-06T05:56:55;32.50;;;13.80;;
56637;SDS011;42507;51.982;20.140;2024-01-06T05:59:21;38.40;;;14.60;;
56637;SDS011;42507;51.982;20.140;2024-01-06T06:01:47;30.40;;;12.20;;
56637;SDS011;42507;51.982;20.140;2024-01-06T06:04:13;26.70;;;13.00;;
56637;SDS011;42507;51.982;20.140;2024-01-06T06:06:39;29.90;;;12.90;;
56637;SDS011;42507;51.982;20.140;2024-01-06T06:09:05;28.10;;;12.40;;
56637;SDS011;42507;51.982;20.140;2024-01-06T06:11:33;31.30;;;13.40;;
56637;SDS011;42507;51.982;20.140;2024-01-06T06:13:59;30.20;;;12.20;;
56637;SDS011;42507;51.982;20.140;2024-01-06T06:16:28;23.10;;;11.60;;
56637;SDS011;42507;51.982;20.140;2024-01-06T06:18:55;22.10;;;11.60;;
56637;SDS011;42507;51.982;20.140;2024-01-06T06:21:21;26.30;;;12.50;;
56637;SDS011;42507;51.982;20.140;2024-01-06T06:23:47;26.40;;;12.50;;
56637;SDS011;42507;51.982;20.140;2024-01-06T06:26:13;26.70;;;12.00;;
56637;SDS011;42507;51.982;20.140;2024-01-06T06:28:39;28.20;;;11.30;;
56637;SDS011;42507;51.982;20.140;2024-01-06T06:31:05;27.50;;;13.30;;
56637;SDS011;42507;51.982;20.140;2024-01-06T06:33:30;23.80;;;11.10;;
56637;SDS011;42507;51.982;20.140;2024-01-06T06:35:58;32.50;;;14.30;;
56637;SDS011;42507;51.982;20.140;2024-01-06T06:38:27;28.90;;;12.90;;
56637;SDS011;42507;51.982;20.140;2024-01-06T06:40:53;25.20;;;13.90;;
56637;SDS011;42507;51.982;20.140;2024-01-06T06:43:19;21.30;;;10.80;;
56637;SDS011;42507;51.982;20.140;2024-01-06T06:45:46;22.90;;;11.80;;
56637;SDS011;42507;51.982;20.140;2024-01-06T06:48:12;19.80;;;11.40;;
56637;SDS011;42507;51.982;20.140;2024-01-06T06:50:38;20.00;;;11.10;;
56637;SDS011;42507;51.982;20.140;2024-01-06T06:53:04;18.90;;;10.50;;
56637;SDS011;42507;51.982;20.140;2024-01-06T06:55:30;20.30;;;11.40;;
56637;SDS011;42507;51.982;20.140;2024-01-06T06:57:56;26.10;;;13.30;;
56637;SDS011;42507;51.982;20.140;2024-01-06T07:00:22;39.40;;;20.20;;
56637;SDS011;42507;51.982;20.140;2024-01-06T07:02:48;22.40;;;11.70;;
56637;SDS011;42507;51.982;20.140;2024-01-06T07:05:14;24.30;;;12.50;;
56637;SDS011;42507;51.982;20.140;2024-01-06T07:07:41;23.70;;;11.90;;
56637;SDS011;42507;51.982;20.140;2024-01-06T07:10:10;23.20;;;11.80;;
56637;SDS011;42507;51.982;20.140;2024-01-06T07:12:37;19.40;;;10.90;;
56637;SDS011;42507;51.982;20.140;2024-01-06T07:15:03;23.70;;;12.20;;
56637;SDS011;42507;51.982;20.140;2024-01-06T07:17:35;22.30;;;11.60;;
56637;SDS011;42507;51.982;20.140;2024-01-06T07:20:01;22.60;;;12.50;;
56637;SDS011;42507;51.982;20.140;2024-01-06T07:22:27;24.40;;;12.70;;
56637;SDS011;42507;51.982;20.140;2024-01-06T07:24:53;25.90;;;12.60;;
56637;SDS011;42507;51.982;20.140;2024-01-06T07:27:19;22.50;;;12.30;;
56637;SDS011;42507;51.982;20.140;2024-01-06T07:29:46;23.20;;;12.50;;
56637;SDS011;42507;51.982;20.140;2024-01-06T07:32:12;23.60;;;12.00;;
56637;SDS011;42507;51.982;20.140;2024-01-06T07:34:39;25.10;;;12.90;;
56637;SDS011;42507;51.982;20.140;2024-01-06T07:37:05;26.60;;;13.80;;
56637;SDS011;42507;51.982;20.140;2024-01-06T07:39:32;25.00;;;11.60;;
56637;SDS011;42507;51.982;20.140;2024-01-06T07:41:59;23.90;;;12.80;;
56637;SDS011;42507;51.982;20.140;2024-01-06T07:44:24;24.50;;;12.30;;
56637;SDS011;42507;51.982;20.140;2024-01-06T07:46:51;21.50;;;11.50;;
56637;SDS011;42507;51.982;20.140;2024-01-06T07:49:17;25.30;;;13.70;;
56637;SDS011;42507;51.982;20.140;2024-01-06T07:51:43;23.80;;;11.90;;
56637;SDS011;42507;51.982;20.140;2024-01-06T07:54:09;23.20;;;11.90;;
56637;SDS011;42507;51.982;20.140;2024-01-06T07:56:35;19.50;;;11.10;;
56637;SDS011;42507;51.982;20.140;2024-01-06T07:59:01;23.10;;;12.30;;
56637;SDS011;42507;51.982;20.140;2024-01-06T08:01:27;19.70;;;11.50;;
56637;SDS011;42507;51.982;20.140;2024-01-06T08:03:53;22.90;;;12.00;;
56637;SDS011;42507;51.982;20.140;2024-01-06T08:06:19;27.00;;;13.00;;
56637;SDS011;42507;51.982;20.140;2024-01-06T08:08:45;30.20;;;13.80;;
56637;SDS011;42507;51.982;20.140;2024-01-06T08:11:11;33.50;;;14.40;;
56637;SDS011;42507;51.982;20.140;2024-01-06T08:13:37;31.00;;;14.20;;
56637;SDS011;42507;51.982;20.140;2024-01-06T08:16:04;28.40;;;12.90;;
56637;SDS011;42507;51.982;20.140;2024-01-06T08:18:31;30.70;;;15.90;;
56637;SDS011;42507;51.982;20.140;2024-01-06T08:20:58;24.30;;;12.20;;
56637;SDS011;42507;51.982;20.140;2024-01-06T08:23:24;26.30;;;12.20;;
56637;SDS011;42507;51.982;20.140;2024-01-06T08:25:50;30.70;;;14.00;;
56637;SDS011;42507;51.982;20.140;2024-01-06T08:28:17;36.80;;;15.30;;
56637;SDS011;42507;51.982;20.140;2024-01-06T08:30:44;31.40;;;14.30;;
56637;SDS011;42507;51.982;20.140;2024-01-06T08:33:10;35.30;;;15.50;;
56637;SDS011;42507;51.982;20.140;2024-01-06T08:35:36;41.00;;;18.90;;
56637;SDS011;42507;51.982;20.140;2024-01-06T08:38:06;46.50;;;19.00;;
56637;SDS011;42507;51.982;20.140;2024-01-06T08:40:33;39.20;;;15.20;;
56637;SDS011;42507;51.982;20.140;2024-01-06T08:42:59;29.00;;;13.90;;
56637;SDS011;42507;51.982;20.140;2024-01-06T08:45:25;37.20;;;17.90;;
56637;SDS011;42507;51.982;20.140;2024-01-06T08:47:51;33.70;;;14.70;;
56637;SDS011;42507;51.982;20.140;2024-01-06T08:50:17;35.10;;;17.00;;
56637;SDS011;42507;51.982;20.140;2024-01-06T08:52:43;30.80;;;15.70;;
56637;SDS011;42507;51.982;20.140;2024-01-06T08:55:09;31.80;;;15.10;;
56637;SDS011;42507;51.982;20.140;2024-01-06T08:57:35;31.20;;;14.90;;
56637;SDS011;42507;51.982;20.140;2024-01-06T09:00:01;29.10;;;15.00;;
56637;SDS011;42507;51.982;20.140;2024-01-06T09:02:27;28.40;;;12.50;;
56637;SDS011;42507;51.982;20.140;2024-01-06T09:04:53;29.60;;;13.70;;
56637;SDS011;42507;51.982;20.140;2024-01-06T09:07:19;27.80;;;13.60;;
56637;SDS011;42507;51.982;20.140;2024-01-06T09:09:46;28.50;;;13.10;;
56637;SDS011;42507;51.982;20.140;2024-01-06T09:12:12;33.00;;;15.10;;
56637;SDS011;42507;51.982;20.140;2024-01-06T09:14:39;29.30;;;14.70;;
56637;SDS011;42507;51.982;20.140;2024-01-06T09:17:06;25.30;;;13.50;;
56637;SDS011;42507;51.982;20.140;2024-01-06T09:19:32;23.10;;;10.60;;
56637;SDS011;42507;51.982;20.140;2024-01-06T09:21:58;22.50;;;12.80;;
56637;SDS011;42507;51.982;20.140;2024-01-06T09:24:24;22.80;;;12.30;;
56637;SDS011;42507;51.982;20.140;2024-01-06T09:26:50;26.30;;;14.80;;
56637;SDS011;42507;51.982;20.140;2024-01-06T09:29:17;24.60;;;13.50;;
56637;SDS011;42507;51.982;20.140;2024-01-06T09:31:43;24.20;;;13.50;;
56637;SDS011;42507;51.982;20.140;2024-01-06T09:34:09;22.00;;;12.80;;
56637;SDS011;42507;51.982;20.140;2024-01-06T09:36:35;26.20;;;13.10;;
56637;SDS011;42507;51.982;20.140;2024-01-06T09:39:01;26.80;;;15.20;;
56637;SDS011;42507;51.982;20.140;2024-01-06T09:41:27;31.10;;;16.80;;
56637;SDS011;42507;51.982;20.140;2024-01-06T09:43:53;23.70;;;11.70;;
56637;SDS011;42507;51.982;20.140;2024-01-06T09:46:28;20.80;;;12.10;;
56637;SDS011;42507;51.982;20.140;2024-01-06T09:48:55;22.60;;;13.00;;
56637;SDS011;42507;51.982;20.140;2024-01-06T09:51:22;20.40;;;12.50;;
56637;SDS011;42507;51.982;20.140;2024-01-06T09:53:49;20.10;;;11.90;;
56637;SDS011;42507;51.982;20.140;2024-01-06T09:56:18;25.50;;;12.70;;
56637;SDS011;42507;51.982;20.140;2024-01-06T09:58:44;22.50;;;13.80;;
56637;SDS011;42507;51.982;20.140;2024-01-06T10:01:11;21.50;;;12.90;;
56637;SDS011;42507;51.982;20.140;2024-01-06T10:03:38;21.50;;;11.80;;
56637;SDS011;42507;51.982;20.140;2024-01-06T10:06:04;23.00;;;12.40;;
56637;SDS011;42507;51.982;20.140;2024-01-06T10:08:31;25.60;;;13.80;;
56637;SDS011;42507;51.982;20.140;2024-01-06T10:11:00;22.20;;;13.20;;
56637;SDS011;42507;51.982;20.140;2024-01-06T10:13:27;29.80;;;17.00;;
56637;SDS011;42507;51.982;20.140;2024-01-06T10:15:55;19.80;;;12.90;;
56637;SDS011;42507;51.982;20.140;2024-01-06T10:18:21;23.50;;;13.50;;
56637;SDS011;42507;51.982;20.140;2024-01-06T10:20:47;23.80;;;13.40;;
56637;SDS011;42507;51.982;20.140;2024-01-06T10:23:13;23.50;;;13.70;;
56637;SDS011;42507;51.982;20.140;2024-01-06T10:25:39;22.60;;;12.90;;
56637;SDS011;42507;51.982;20.140;2024-01-06T10:28:11;25.10;;;12.90;;
56637;SDS011;42507;51.982;20.140;2024-01-06T10:30:39;23.80;;;11.60;;
56637;SDS011;42507;51.982;20.140;2024-01-06T10:33:09;27.60;;;14.90;;
56637;SDS011;42507;51.982;20.140;2024-01-06T10:35:36;26.80;;;13.70;;
56637;SDS011;42507;51.982;20.140;2024-01-06T10:38:03;24.50;;;13.80;;
56637;SDS011;42507;51.982;20.140;2024-01-06T10:40:29;26.70;;;13.20;;
56637;SDS011;42507;51.982;20.140;2024-01-06T10:42:55;25.50;;;14.20;;
56637;SDS011;42507;51.982;20.140;2024-01-06T10:45:23;21.90;;;12.20;;
56637;SDS011;42507;51.982;20.140;2024-01-06T10:47:49;26.00;;;13.80;;
56637;SDS011;42507;51.982;20.140;2024-01-06T10:50:18;26.40;;;14.30;;
56637;SDS011;42507;51.982;20.140;2024-01-06T10:52:45;27.90;;;13.60;;
56637;SDS011;42507;51.982;20.140;2024-01-06T10:55:11;27.00;;;14.60;;
56637;SDS011;42507;51.982;20.140;2024-01-06T10:57:39;19.30;;;9.70;;
56637;SDS011;42507;51.982;20.140;2024-01-06T11:00:09;21.30;;;11.10;;
56637;SDS011;42507;51.982;20.140;2024-01-06T11:02:36;28.30;;;15.40;;
56637;SDS011;42507;51.982;20.140;2024-01-06T11:05:02;31.30;;;16.80;;
56637;SDS011;42507;51.982;20.140;2024-01-06T11:07:28;27.60;;;14.00;;
56637;SDS011;42507;51.982;20.140;2024-01-06T11:10:00;25.90;;;13.50;;
56637;SDS011;42507;51.982;20.140;2024-01-06T11:12:31;26.60;;;15.20;;
56637;SDS011;42507;51.982;20.140;2024-01-06T11:14:57;25.40;;;14.90;;
56637;SDS011;42507;51.982;20.140;2024-01-06T11:20:27;22.80;;;11.50;;
56637;SDS011;42507;51.982;20.140;2024-01-06T11:22:53;21.90;;;13.40;;
56637;SDS011;42507;51.982;20.140;2024-01-06T11:25:22;26.40;;;13.80;;
56637;SDS011;42507;51.982;20.140;2024-01-06T11:27:48;30.70;;;15.90;;
56637;SDS011;42507;51.982;20.140;2024-01-06T11:30:22;27.50;;;14.30;;
56637;SDS011;42507;51.982;20.140;2024-01-06T11:32:50;25.90;;;13.90;;
56637;SDS011;42507;51.982;20.140;2024-01-06T11:35:19;23.60;;;12.50;;
56637;SDS011;42507;51.982;20.140;2024-01-06T11:42:47;22.90;;;11.90;;
56637;SDS011;42507;51.982;20.140;2024-01-06T11:45:14;25.20;;;14.20;;
56637;SDS011;42507;51.982;20.140;2024-01-06T11:47:41;27.30;;;14.60;;
56637;SDS011;42507;51.982;20.140;2024-01-06T11:50:13;24.50;;;13.20;;
56637;SDS011;42507;51.982;20.140;2024-01-06T11:52:39;24.10;;;13.80;;
56637;SDS011;42507;51.982;20.140;2024-01-06T11:55:05;27.70;;;15.20;;
56637;SDS011;42507;51.982;20.140;2024-01-06T11:57:31;26.00;;;15.00;;
56637;SDS011;42507;51.982;20.140;2024-01-06T11:59:57;24.20;;;13.20;;
56637;SDS011;42507;51.982;20.140;2024-01-06T12:02:23;24.50;;;14.30;;
56637;SDS011;42507;51.982;20.140;2024-01-06T12:04:49;22.40;;;13.60;;
56637;SDS011;42507;51.982;20.140;2024-01-06T12:07:17;24.80;;;13.70;;
56637;SDS011;42507;51.982;20.140;2024-01-06T12:09:43;22.30;;;13.60;;
56637;SDS011;42507;51.982;20.140;2024-01-06T12:12:09;25.40;;;13.30;;
56637;SDS011;42507;51.982;20.140;2024-01-06T12:14:36;21.70;;;12.30;;
56637;SDS011;42507;51.982;20.140;2024-01-06T12:17:02;23.30;;;12.80;;
56637;SDS011;42507;51.982;20.140;2024-01-06T12:19:30;21.80;;;12.90;;
56637;SDS011;42507;51.982;20.140;2024-01-06T12:21:56;24.20;;;13.10;;
56637;SDS011;42507;51.982;20.140;2024-01-06T12:24:22;20.20;;;11.90;;
56637;SDS011;42507;51.982;20.140;2024-01-06T12:26:49;18.90;;;10.30;;
56637;SDS011;42507;51.982;20.140;2024-01-06T12:29:16;16.60;;;10.00;;
56637;SDS011;42507;51.982;20.140;2024-01-06T12:31:43;20.30;;;12.40;;
56637;SDS011;42507;51.982;20.140;2024-01-06T12:34:09;21.20;;;12.90;;
56637;SDS011;42507;51.982;20.140;2024-01-06T12:36:39;25.30;;;13.80;;
56637;SDS011;42507;51.982;20.140;2024-01-06T12:39:10;24.20;;;12.20;;
56637;SDS011;42507;51.982;20.140;2024-01-06T12:41:42;22.70;;;12.60;;
56637;SDS011;42507;51.982;20.140;2024-01-06T12:44:08;23.80;;;13.20;;
56637;SDS011;42507;51.982;20.140;2024-01-06T12:46:35;21.40;;;12.50;;
56637;SDS011;42507;51.982;20.140;2024-01-06T12:49:01;22.50;;;12.30;;
56637;SDS011;42507;51.982;20.140;2024-01-06T12:51:28;21.70;;;12.70;;
56637;SDS011;42507;51.982;20.140;2024-01-06T12:53:54;25.50;;;12.60;;
56637;SDS011;42507;51.982;20.140;2024-01-06T12:56:20;21.90;;;11.60;;
56637;SDS011;42507;51.982;20.140;2024-01-06T12:58:46;17.60;;;10.50;;
56637;SDS011;42507;51.982;20.140;2024-01-06T13:01:12;21.60;;;11.90;;
56637;SDS011;42507;51.982;20.140;2024-01-06T13:03:38;23.90;;;13.60;;
56637;SDS011;42507;51.982;20.140;2024-01-06T13:06:04;19.40;;;12.00;;
56637;SDS011;42507;51.982;20.140;2024-01-06T13:08:30;18.10;;;11.00;;
56637;SDS011;42507;51.982;20.140;2024-01-06T13:10:56;24.90;;;13.20;;
56637;SDS011;42507;51.982;20.140;2024-01-06T13:13:22;24.90;;;13.50;;
56637;SDS011;42507;51.982;20.140;2024-01-06T13:15:48;24.20;;;11.30;;
56637;SDS011;42507;51.982;20.140;2024-01-06T13:18:14;25.70;;;13.30;;
56637;SDS011;42507;51.982;20.140;2024-01-06T13:20:42;22.50;;;11.10;;
56637;SDS011;42507;51.982;20.140;2024-01-06T13:23:09;23.70;;;12.90;;
56637;SDS011;42507;51.982;20.140;2024-01-06T13:25:37;31.80;;;16.40;;
56637;SDS011;42507;51.982;20.140;2024-01-06T13:28:06;19.10;;;10.20;;
56637;SDS011;42507;51.982;20.140;2024-01-06T13:30:33;21.10;;;12.10;;
56637;SDS011;42507;51.982;20.140;2024-01-06T13:32:59;20.90;;;11.60;;
56637;SDS011;42507;51.982;20.140;2024-01-06T13:35:25;25.70;;;13.70;;
56637;SDS011;42507;51.982;20.140;2024-01-06T13:37:52;17.90;;;10.40;;
56637;SDS011;42507;51.982;20.140;2024-01-06T13:40:18;22.00;;;12.20;;
56637;SDS011;42507;51.982;20.140;2024-01-06T13:42:48;21.10;;;10.80;;
56637;SDS011;42507;51.982;20.140;2024-01-06T13:45:14;21.50;;;10.80;;
56637;SDS011;42507;51.982;20.140;2024-01-06T13:47:40;19.40;;;9.80;;
56637;SDS011;42507;51.982;20.140;2024-01-06T13:50:15;20.40;;;12.30;;
56637;SDS011;42507;51.982;20.140;2024-01-06T13:52:42;21.40;;;12.60;;
56637;SDS011;42507;51.982;20.140;2024-01-06T13:55:08;22.80;;;11.60;;
56637;SDS011;42507;51.982;20.140;2024-01-06T13:57:34;21.50;;;12.00;;
56637;SDS011;42507;51.982;20.140;2024-01-06T14:00:00;23.80;;;13.00;;
56637;SDS011;42507;51.982;20.140;2024-01-06T14:02:26;22.60;;;13.20;;
56637;SDS011;42507;51.982;20.140;2024-01-06T14:04:52;26.90;;;13.20;;
56637;SDS011;42507;51.982;20.140;2024-01-06T14:07:18;23.10;;;12.80;;
56637;SDS011;42507;51.982;20.140;2024-01-06T14:09:45;24.70;;;12.40;;
56637;SDS011;42507;51.982;20.140;2024-01-06T14:12:11;24.40;;;12.80;;